Time;durP1;ratioP1;P1;durP2;ratioP2;P2;SDS_P1;SDS_P2;PMS_P1;PMS_P2;Temp;Humidity;BMP_temperature;BMP_pressure;BME280_temperature;BME280_humidity;BME280_pressure;Samples;Min_cycle;Max_cycle;Signal;HPM_P1;HPM_P2
2022/09/09 00:00:49;;;;;;;4.60;1.95;;;16.10;99.90;;;;;;6230766;23;20053;-89
2022/09/09 00:03:19;;;;;;;4.10;2.10;;;16.00;99.90;;;;;;6230257;23;20021;-90
2022/09/09 00:06:03;;;;;;;4.93;2.40;;;16.00;99.90;;;;;;6230123;23;20063;-89
2022/09/09 00:08:37;;;;;;;4.90;2.20;;;16.00;99.90;;;;;;6230398;22;20028;-89
2022/09/09 00:11:05;;;;;;;4.05;1.90;;;16.00;99.90;;;;;;6255767;22;20017;-89
2022/09/09 00:13:51;;;;;;;4.50;2.30;;;15.90;99.90;;;;;;6254978;22;20028;-90
2022/09/09 00:16:27;;;;;;;4.35;1.92;;;15.90;99.90;;;;;;6230389;22;20021;-88
2022/09/09 00:19:15;;;;;;;5.10;2.50;;;15.90;99.90;;;;;;6228531;23;20024;-89
2022/09/09 00:22:04;;;;;;;4.10;2.30;;;15.90;99.90;;;;;;6230288;22;20078;-90
2022/09/09 00:24:42;;;;;;;6.30;3.28;;;15.80;99.90;;;;;;6255439;22;20014;-89
2022/09/09 00:27:26;;;;;;;6.78;2.60;;;15.80;99.90;;;;;;6230436;22;20053;-90
2022/09/09 00:30:14;;;;;;;6.78;3.00;;;15.80;99.90;;;;;;6229990;23;20020;-89
2022/09/09 00:32:40;;;;;;;5.82;2.88;;;15.80;99.90;;;;;;6229853;23;20056;-90
2022/09/09 00:35:29;;;;;;;5.82;2.63;;;15.70;99.90;;;;;;6229694;23;20024;-90
2022/09/09 00:38:01;;;;;;;5.22;2.17;;;15.70;99.90;;;;;;6229270;22;20549;-89
2022/09/09 00:40:33;;;;;;;5.00;2.60;;;15.70;99.90;;;;;;6230419;23;20009;-89
2022/09/09 00:43:29;;;;;;;5.05;1.90;;;15.70;99.90;;;;;;6229251;23;20021;-90
2022/09/09 00:46:01;;;;;;;4.32;1.88;;;15.60;99.90;;;;;;6229804;23;20025;-89
2022/09/09 00:48:41;;;;;;;5.07;2.47;;;15.60;99.90;;;;;;6254969;22;20013;-90
2022/09/09 00:51:25;;;;;;;4.60;2.38;;;15.60;99.90;;;;;;6230119;22;20439;-89
2022/09/09 00:54:31;;;;;;;5.05;2.33;;;15.50;99.90;;;;;;6228433;22;20021;-89
2022/09/09 00:57:19;;;;;;;4.65;2.40;;;15.50;99.90;;;;;;6229718;23;20024;-89
2022/09/09 00:59:52;;;;;;;5.53;2.72;;;15.50;99.90;;;;;;6254951;22;20446;-90
2022/09/09 01:02:34;;;;;;;4.70;2.50;;;15.50;99.90;;;;;;6230016;22;20014;-90
2022/09/09 01:05:16;;;;;;;5.20;2.33;;;15.40;99.90;;;;;;6228577;23;20147;-90
2022/09/09 01:07:47;;;;;;;4.80;2.58;;;15.40;99.90;;;;;;6229724;22;20025;-89
2022/09/09 01:10:53;;;;;;;5.82;2.78;;;15.30;99.90;;;;;;6155493;23;20017;-90
2022/09/09 01:13:41;;;;;;;4.75;2.40;;;15.20;99.90;;;;;;6188779;23;20040;-89
2022/09/09 01:16:11;;;;;;;5.43;2.60;;;15.20;99.90;;;;;;6131725;23;20028;-90
2022/09/09 01:18:43;;;;;;;6.43;2.90;;;15.20;99.90;;;;;;6131255;23;20020;-89
2022/09/09 01:21:44;;;;;;;4.85;2.58;;;15.10;99.90;;;;;;6131388;23;20438;-90
2022/09/09 01:24:30;;;;;;;5.07;2.72;;;15.10;99.90;;;;;;6131304;23;20075;-91
2022/09/09 01:27:00;;;;;;;5.70;2.50;;;15.10;99.90;;;;;;6131469;23;20021;-90
2022/09/09 01:29:26;;;;;;;5.95;2.65;;;15.10;99.90;;;;;;6131458;23;20024;-88
2022/09/09 01:31:58;;;;;;;4.68;2.42;;;15.00;99.90;;;;;;6106849;23;20010;-90
2022/09/09 01:34:33;;;;;;;5.32;2.80;;;15.00;99.90;;;;;;6131191;23;20730;-90
2022/09/09 01:37:11;;;;;;;4.50;2.22;;;14.90;99.90;;;;;;6131149;23;20036;-90
2022/09/09 01:39:39;;;;;;;5.20;2.72;;;14.90;99.90;;;;;;6130928;23;20417;-90
2022/09/09 01:42:07;;;;;;;4.30;2.33;;;14.90;99.90;;;;;;6155907;22;20028;-89
2022/09/09 01:44:35;;;;;;;5.20;2.63;;;14.90;99.90;;;;;;6131479;23;20020;-90
2022/09/09 01:47:02;;;;;;;5.70;2.47;;;14.80;99.90;;;;;;6131507;23;20145;-90
2022/09/09 01:49:27;;;;;;;;;;;14.80;99.90;;;;;;6131613;23;20017;-90
2022/09/09 01:51:55;;;;;;;5.03;2.25;;;14.80;99.90;;;;;;6131417;23;19916;-90
2022/09/09 01:54:24;;;;;;;4.80;2.20;;;14.80;99.90;;;;;;6131258;23;20052;-90
2022/09/09 01:57:11;;;;;;;5.07;2.60;;;14.80;99.90;;;;;;6131089;23;20021;-91
2022/09/09 01:59:54;;;;;;;5.22;2.47;;;14.80;99.90;;;;;;6131041;23;20021;-90
2022/09/09 02:02:58;;;;;;;4.90;2.50;;;14.80;99.90;;;;;;6130962;23;20324;-91
2022/09/09 02:05:37;;;;;;;4.03;2.17;;;14.80;99.90;;;;;;6156815;23;20020;-90
2022/09/09 02:08:28;;;;;;;4.82;2.28;;;14.80;99.90;;;;;;6131264;23;20021;-89
2022/09/09 02:11:15;;;;;;;4.47;2.67;;;14.80;99.90;;;;;;6131372;23;20021;-90
2022/09/09 02:13:44;;;;;;;4.88;2.63;;;14.80;99.90;;;;;;6130815;23;20028;-90
2022/09/09 02:16:13;;;;;;;4.88;2.50;;;14.80;99.90;;;;;;6131027;23;20021;-90
2022/09/09 02:19:06;;;;;;;7.45;2.70;;;14.80;99.90;;;;;;6131214;23;20139;-89
2022/09/09 02:21:34;;;;;;;5.47;2.50;;;14.80;99.90;;;;;;6130347;23;20081;-90
2022/09/09 02:24:04;;;;;;;6.10;2.88;;;14.80;99.90;;;;;;6131040;23;20053;-89
2022/09/09 02:26:33;;;;;;;7.22;3.05;;;14.80;99.90;;;;;;6131345;23;20021;-90
2022/09/09 02:29:03;;;;;;;5.95;2.72;;;14.80;99.90;;;;;;6132654;23;20096;-88
2022/09/09 02:31:29;;;;;;;6.53;2.65;;;14.80;99.90;;;;;;6243438;22;20047;-90
2022/09/09 02:34:00;;;;;;;5.00;2.55;;;14.80;99.90;;;;;;6128985;23;20014;-90
2022/09/09 02:36:29;;;;;;;8.15;3.65;;;14.80;99.90;;;;;;6132520;23;20025;-90
2022/09/09 02:38:56;;;;;;;6.60;3.42;;;14.80;99.90;;;;;;6131574;23;20024;-90
2022/09/09 02:41:30;;;;;;;5.45;2.65;;;14.80;99.90;;;;;;6130982;23;20025;-91
2022/09/09 02:43:56;;;;;;;6.13;3.00;;;14.80;99.90;;;;;;6131960;23;20342;-91
2022/09/09 02:46:44;;;;;;;5.68;3.22;;;14.80;99.90;;;;;;6132249;23;20021;-90
2022/09/09 02:49:24;;;;;;;5.10;2.88;;;14.90;99.90;;;;;;6133028;23;20045;-91
2022/09/09 02:52:00;;;;;;;6.78;3.60;;;14.90;99.90;;;;;;6151667;23;20005;-90
2022/09/09 02:54:32;;;;;;;6.13;3.13;;;14.90;99.90;;;;;;6131959;23;20327;-89
2022/09/09 02:57:19;;;;;;;5.75;3.00;;;14.80;99.90;;;;;;6131908;23;20017;-89
2022/09/09 02:59:46;;;;;;;6.78;3.20;;;14.90;99.90;;;;;;6132172;23;20013;-91
2022/09/09 03:02:12;;;;;;;5.90;3.25;;;14.90;99.90;;;;;;6131937;23;20028;-90
2022/09/09 03:04:39;;;;;;;5.93;3.00;;;14.90;99.90;;;;;;6132236;23;20017;-90
2022/09/09 03:07:05;;;;;;;7.13;3.30;;;14.90;99.90;;;;;;6131601;23;20021;-91
2022/09/09 03:09:32;;;;;;;6.28;3.30;;;14.90;99.90;;;;;;6116920;23;20024;-90
2022/09/09 03:11:58;;;;;;;6.85;3.58;;;14.90;99.90;;;;;;6102617;23;20029;-90
2022/09/09 03:14:25;;;;;;;6.95;3.00;;;15.00;99.90;;;;;;6126988;23;20339;-92
2022/09/09 03:16:54;;;;;;;6.57;3.15;;;15.00;99.90;;;;;;6127278;23;20398;-89
2022/09/09 03:19:20;;;;;;;7.57;3.30;;;15.00;99.90;;;;;;6102504;23;20020;-89
2022/09/09 03:21:47;;;;;;;6.57;3.03;;;15.00;99.90;;;;;;6102591;23;20074;-92
2022/09/09 03:24:13;;;;;;;5.75;2.70;;;15.00;99.90;;;;;;6102555;23;20341;-91
2022/09/09 03:26:40;;;;;;;5.07;2.70;;;15.00;99.90;;;;;;6103694;23;20040;-91
2022/09/09 03:29:07;;;;;;;7.32;3.00;;;15.00;99.90;;;;;;6128440;22;20025;-89
2022/09/09 03:31:35;;;;;;;4.90;2.75;;;15.00;99.90;;;;;;6143955;23;20018;-90
2022/09/09 03:34:01;;;;;;;5.72;2.97;;;15.00;99.90;;;;;;6104150;23;20017;-90
2022/09/09 03:36:28;;;;;;;5.97;2.95;;;15.10;99.90;;;;;;6102686;23;20024;-90
2022/09/09 03:38:54;;;;;;;5.40;2.33;;;15.00;99.90;;;;;;6102566;23;20017;-91
2022/09/09 03:41:23;;;;;;;5.68;2.63;;;15.10;99.90;;;;;;6102529;23;20018;-90
2022/09/09 03:43:50;;;;;;;6.25;2.50;;;15.10;99.90;;;;;;6102584;23;20029;-92
2022/09/09 03:46:38;;;;;;;4.90;2.40;;;15.10;99.90;;;;;;6102573;23;20049;-88
2022/09/09 03:49:03;;;;;;;6.25;2.60;;;15.10;99.90;;;;;;6102369;23;20064;-89
2022/09/09 03:51:30;;;;;;;6.00;2.28;;;15.20;99.90;;;;;;6102593;23;20127;-90
2022/09/09 03:53:57;;;;;;;5.80;2.30;;;15.10;99.90;;;;;;6125826;23;20013;-91
2022/09/09 03:56:24;;;;;;;5.32;2.13;;;15.10;99.90;;;;;;6126856;23;20339;-89
2022/09/09 03:58:50;;;;;;;3.47;1.70;;;15.20;99.90;;;;;;6102145;23;20017;-91
2022/09/09 04:01:40;;;;;;;4.32;1.58;;;15.20;99.90;;;;;;6126945;23;20064;-89
2022/09/09 04:04:28;;;;;;;4.32;1.73;;;15.10;99.90;;;;;;6102203;23;20018;-91
2022/09/09 04:06:54;;;;;;;3.97;1.63;;;15.20;99.90;;;;;;6126662;23;20104;-94
2022/09/09 04:09:20;;;;;;;5.70;2.22;;;15.20;99.90;;;;;;6125029;22;20015;-90
2022/09/09 04:11:46;;;;;;;3.90;1.45;;;15.20;99.90;;;;;;6280491;22;20072;-93
2022/09/09 04:14:12;;;;;;;5.95;1.75;;;15.20;99.90;;;;;;6256026;22;20019;-91
2022/09/09 04:16:38;;;;;;;4.47;1.55;;;15.20;99.90;;;;;;6281999;22;20016;-94
2022/09/09 04:19:06;;;;;;;4.00;1.30;;;15.20;99.90;;;;;;6256468;22;20098;-94
2022/09/09 04:21:32;;;;;;;3.17;1.23;;;15.20;99.90;;;;;;6256083;22;20016;-92
2022/09/09 04:23:58;;;;;;;4.63;1.40;;;15.30;99.90;;;;;;6256756;22;20105;-93
2022/09/09 04:26:24;;;;;;;3.30;1.17;;;15.30;99.90;;;;;;6256555;22;20038;-88
2022/09/09 04:28:50;;;;;;;3.28;1.20;;;15.20;99.90;;;;;;6256175;22;20011;-90
2022/09/09 04:31:21;;;;;;;2.58;1.20;;;15.30;99.90;;;;;;6280303;22;20054;-89
2022/09/09 04:33:47;;;;;;;2.95;1.02;;;15.30;99.90;;;;;;6255488;22;20341;-92
2022/09/09 04:36:13;;;;;;;2.80;1.10;;;15.30;99.90;;;;;;6281689;22;20016;-92
2022/09/09 04:38:39;;;;;;;3.28;1.00;;;15.30;99.90;;;;;;6256029;22;20012;-90
2022/09/09 04:41:05;;;;;;;3.75;1.30;;;15.30;99.90;;;;;;6255926;22;20011;-91
2022/09/09 04:43:30;;;;;;;4.55;1.55;;;15.30;99.90;;;;;;6256079;22;20015;-92
2022/09/09 04:45:56;;;;;;;2.17;0.93;;;15.40;99.90;;;;;;6255815;22;20093;-94
2022/09/09 04:48:22;;;;;;;2.63;1.13;;;15.40;99.90;;;;;;6255782;22;20023;-93
2022/09/09 04:51:04;;;;;;;3.45;0.90;;;15.40;99.90;;;;;;6255978;22;20046;-92
2022/09/09 04:53:49;;;;;;;4.35;1.15;;;15.40;99.90;;;;;;6255814;22;20023;-91
2022/09/09 04:56:41;;;;;;;3.67;1.20;;;15.40;99.90;;;;;;6256338;22;20026;-93
2022/09/09 04:59:10;;;;;;;1.70;0.80;;;15.40;99.90;;;;;;6255981;22;20019;-94
2022/09/09 05:01:50;;;;;;;2.00;1.00;;;15.40;99.90;;;;;;6256042;22;20073;-92
2022/09/09 05:04:47;;;;;;;2.67;1.05;;;15.40;99.90;;;;;;6255062;22;20015;-94
2022/09/09 05:07:59;;;;;;;2.55;1.02;;;15.40;99.90;;;;;;6250918;22;20053;-91
2022/09/09 05:10:50;;;;;;;2.65;1.25;;;15.40;99.90;;;;;;6201397;22;20328;-94
2022/09/09 05:13:22;;;;;;;4.78;1.45;;;15.40;99.90;;;;;;6206543;22;20025;-94
2022/09/09 05:16:28;;;;;;;2.90;1.02;;;15.40;99.90;;;;;;6179820;23;20022;-93
2022/09/09 05:19:00;;;;;;;2.20;1.05;;;15.50;99.90;;;;;;6148838;22;20516;-92
2022/09/09 05:21:26;;;;;;;2.25;0.98;;;15.40;99.90;;;;;;6229327;22;20059;-94
2022/09/09 05:23:52;;;;;;;3.60;1.40;;;15.40;99.90;;;;;;6255993;22;20022;-94
2022/09/09 05:26:40;;;;;;;3.20;1.40;;;15.40;99.90;;;;;;6229562;23;20021;-92
2022/09/09 05:29:06;;;;;;;2.95;1.40;;;15.40;99.90;;;;;;6249632;22;20077;-89
2022/09/09 05:31:38;;;;;;;2.42;1.05;;;15.40;99.90;;;;;;6228260;22;20020;-95
2022/09/09 05:34:20;;;;;;;;;;;;;;;;;;;;;
2022/09/09 05:37:47;;;;;;;;;;;;;;;;;;;;;
2022/09/09 06:01:56;;;;;;;4.53;2.05;;;15.40;99.90;;;;;;6143544;22;20390;-91
2022/09/09 06:07:08;;;;;;;5.25;2.20;;;15.40;99.90;;;;;;6198344;22;20086;-93
2022/09/09 06:09:41;;;;;;;4.78;2.00;;;15.40;99.90;;;;;;6094615;23;20028;-94
2022/09/09 06:12:07;;;;;;;6.05;2.58;;;15.40;99.90;;;;;;6100358;23;20075;-89
2022/09/09 06:14:46;;;;;;;5.45;2.75;;;15.40;99.90;;;;;;6100093;23;20093;-92
2022/09/09 06:30:10;;;;;;;6.10;2.33;;;15.40;99.90;;;;;;6254651;22;20031;-94
2022/09/09 06:32:55;;;;;;;;;;;15.40;99.90;;;;;;6228750;22;20073;-90
2022/09/09 06:40:31;;;;;;;4.78;2.40;;;15.40;99.90;;;;;;6213867;23;20020;-96
2022/09/09 06:43:00;;;;;;;5.03;2.40;;;15.40;99.90;;;;;;6213046;23;20118;-93
2022/09/09 06:45:26;;;;;;;5.53;2.50;;;15.50;99.90;;;;;;6187615;23;20013;-93
2022/09/09 06:47:56;;;;;;;5.43;2.60;;;15.50;99.90;;;;;;6188181;23;20027;-93
2022/09/09 06:50:21;;;;;;;5.07;2.20;;;15.50;99.90;;;;;;6187991;23;20096;-95
2022/09/09 06:52:52;;;;;;;5.30;2.33;;;15.50;99.90;;;;;;6188343;23;20082;-92
2022/09/09 06:55:19;;;;;;;6.15;2.30;;;15.50;99.90;;;;;;6188855;23;20079;-95
2022/09/09 06:57:45;;;;;;;5.70;2.45;;;15.50;99.90;;;;;;6190654;23;20066;-92
2022/09/09 07:00:11;;;;;;;5.22;2.47;;;15.50;99.90;;;;;;6190472;23;20021;-93
2022/09/09 07:02:39;;;;;;;4.53;2.03;;;15.60;99.90;;;;;;6142361;22;20013;-92
2022/09/09 07:05:05;;;;;;;5.15;2.33;;;15.60;99.90;;;;;;6190356;23;20103;-94
2022/09/09 07:07:31;;;;;;;6.05;2.78;;;15.60;99.90;;;;;;6188995;23;20092;-95
2022/09/09 07:09:56;;;;;;;6.32;3.03;;;15.60;99.90;;;;;;6191224;23;20338;-95
2022/09/09 07:12:24;;;;;;;5.13;2.55;;;15.70;99.90;;;;;;6197121;23;20027;-94
2022/09/09 07:14:51;;;;;;;5.20;2.42;;;15.70;99.90;;;;;;6173316;23;20044;-94
2022/09/09 07:17:17;;;;;;;7.07;2.40;;;15.70;99.90;;;;;;6172565;23;20020;-96
2022/09/09 07:19:43;;;;;;;5.45;2.10;;;15.80;99.90;;;;;;6192345;22;20020;-93
2022/09/09 07:22:10;;;;;;;5.20;2.10;;;15.70;99.90;;;;;;6191125;23;20017;-96
2022/09/09 07:24:37;;;;;;;5.55;2.35;;;15.80;99.90;;;;;;6192511;23;20013;-94
2022/09/09 07:27:03;;;;;;;4.88;1.90;;;15.80;99.90;;;;;;6167076;23;20020;-96
2022/09/09 07:29:29;;;;;;;4.53;2.10;;;15.80;99.90;;;;;;6188674;23;20017;-93
2022/09/09 07:31:54;;;;;;;5.15;2.17;;;15.90;99.90;;;;;;6188478;23;20099;-96
2022/09/09 07:34:20;;;;;;;5.80;2.53;;;15.90;99.90;;;;;;6163575;23;20086;-95
2022/09/09 07:44:45;;;;;;;5.28;2.53;;;16.00;99.90;;;;;;6198145;22;20023;-96
2022/09/09 07:47:11;;;;;;;4.18;1.90;;;16.00;99.90;;;;;;6203064;22;20019;-96
2022/09/09 07:49:37;;;;;;;3.83;1.88;;;16.00;99.90;;;;;;6202464;22;20019;-95
2022/09/09 07:52:03;;;;;;;4.30;2.08;;;16.00;99.90;;;;;;6227634;22;20023;-92
2022/09/09 07:54:29;;;;;;;5.78;2.30;;;16.10;99.90;;;;;;6202297;22;20019;-92
2022/09/09 07:56:54;;;;;;;5.05;1.85;;;16.10;99.90;;;;;;6226664;22;20020;-93
2022/09/09 07:59:20;;;;;;;4.97;2.47;;;16.10;99.90;;;;;;6202310;22;20016;-96
2022/09/09 08:02:04;;;;;;;5.22;2.20;;;16.10;99.90;;;;;;6202420;22;20437;-95
2022/09/09 08:04:30;;;;;;;4.80;1.75;;;16.20;99.90;;;;;;6227075;22;20019;-92
2022/09/09 08:06:58;;;;;;;4.60;2.08;;;16.20;99.90;;;;;;6227197;22;20008;-92
2022/09/09 08:09:26;;;;;;;5.65;2.08;;;16.20;99.90;;;;;;6227178;22;20051;-96
2022/09/09 08:11:53;;;;;;;3.97;2.20;;;16.30;99.90;;;;;;6228122;22;20031;-95
2022/09/09 08:14:20;;;;;;;4.80;2.10;;;16.30;99.90;;;;;;6203458;22;20022;-93
2022/09/09 08:16:48;;;;;;;4.93;1.90;;;16.30;99.90;;;;;;6228398;22;20015;-96
2022/09/09 08:19:17;;;;;;;5.03;2.10;;;16.40;99.90;;;;;;6228305;22;20105;-94
2022/09/09 08:21:44;;;;;;;4.30;1.73;;;16.40;99.90;;;;;;6228532;22;20098;-93
2022/09/09 08:24:47;;;;;;;4.30;2.08;;;16.40;99.90;;;;;;6228750;22;20016;-94
2022/09/09 08:27:12;;;;;;;3.55;1.50;;;16.50;99.90;;;;;;6221008;22;20099;-94
2022/09/09 08:29:38;;;;;;;5.32;2.03;;;16.50;99.90;;;;;;6228526;22;20067;-94
2022/09/09 08:32:04;;;;;;;4.18;1.70;;;16.50;99.90;;;;;;6203999;22;20099;-94
2022/09/09 08:48:43;;;;;;;4.20;1.48;;;16.70;99.90;;;;;;6223426;22;20024;-93
2022/09/09 08:51:17;;;;;;;4.25;1.80;;;16.80;99.90;;;;;;6320718;22;20416;-94
2022/09/09 08:53:51;;;;;;;4.18;1.90;;;16.90;99.90;;;;;;6323152;22;20019;-92
2022/09/09 08:56:28;;;;;;;4.85;1.75;;;16.90;99.90;;;;;;6301847;22;20019;-93
2022/09/09 08:59:04;;;;;;;3.72;1.70;;;17.00;99.90;;;;;;6292492;22;20014;-93
2022/09/09 09:02:36;;;;;;;4.70;2.40;;;17.00;99.90;;;;;;6278576;22;20348;-93
2022/09/09 09:05:47;;;;;;;5.00;1.80;;;17.10;99.90;;;;;;6261054;22;20017;-93
2022/09/09 10:26:04;;;;;;;4.78;1.40;;;17.70;99.90;;;;;;6224673;23;20008;-92
2022/09/09 10:29:12;;;;;;;3.08;1.42;;;17.70;99.90;;;;;;6144586;23;20021;-91
2022/09/09 10:32:27;;;;;;;2.65;1.42;;;17.80;99.90;;;;;;6228897;23;20020;-92
2022/09/09 10:35:33;;;;;;;2.78;1.23;;;17.80;99.90;;;;;;6170507;22;20096;-93
2022/09/09 10:38:13;;;;;;;5.00;1.40;;;17.90;99.90;;;;;;6169382;23;20203;-93
2022/09/09 10:41:23;;;;;;;4.10;0.98;;;17.90;99.90;;;;;;6145839;23;20024;-92
2022/09/09 10:44:11;;;;;;;4.45;1.10;;;18.00;99.90;;;;;;6145816;23;20505;-93
2022/09/09 10:46:56;;;;;;;2.10;0.90;;;18.00;99.90;;;;;;6170139;23;20021;-93
2022/09/09 10:49:49;;;;;;;1.98;0.93;;;18.10;99.90;;;;;;6170686;23;20017;-96
2022/09/09 10:52:30;;;;;;;4.50;1.13;;;18.10;99.90;;;;;;6145107;23;20021;-96
2022/09/09 10:55:19;;;;;;;3.80;1.10;;;18.20;99.90;;;;;;6145361;23;20021;-95
2022/09/09 10:57:58;;;;;;;2.55;1.00;;;18.20;99.90;;;;;;6144532;23;20021;-94
2022/09/09 11:00:47;;;;;;;2.35;1.17;;;18.30;99.90;;;;;;6111513;23;20046;-93
2022/09/09 15:12:00;;;;;;;1.58;0.47;;;18.90;99.90;;;;;;6318100;22;20019;-91
2022/09/09 15:14:26;;;;;;;1.42;0.30;;;18.70;99.90;;;;;;6263091;22;20352;-90
2022/09/09 15:16:52;;;;;;;0.60;0.35;;;18.60;99.90;;;;;;6288143;22;20019;-88
2022/09/09 15:19:17;;;;;;;0.77;0.40;;;18.60;99.90;;;;;;6287863;22;20026;-90
2022/09/09 15:21:43;;;;;;;1.27;0.40;;;18.50;99.90;;;;;;6320367;22;20019;-90
2022/09/09 15:24:09;;;;;;;2.65;0.50;;;18.40;99.90;;;;;;6300588;22;20014;-95
2022/09/09 15:26:38;;;;;;;1.05;0.43;;;18.40;99.90;;;;;;6296991;22;20050;-94
2022/09/09 15:29:04;;;;;;;1.23;0.82;;;18.40;99.90;;;;;;6314750;22;20083;-89
2022/09/09 15:31:31;;;;;;;0.77;0.40;;;18.40;99.90;;;;;;6287915;22;20010;-89
2022/09/09 15:34:01;;;;;;;1.35;0.70;;;18.40;99.90;;;;;;6313012;22;20015;-93
2022/09/09 15:36:32;;;;;;;1.90;0.50;;;18.50;99.90;;;;;;6315545;22;20018;-93
2022/09/09 15:38:59;;;;;;;1.45;0.60;;;18.50;99.90;;;;;;6285708;22;20011;-95
2022/09/09 15:41:25;;;;;;;4.00;0.73;;;18.50;99.90;;;;;;6286754;22;20023;-94
2022/09/09 15:43:53;;;;;;;2.28;0.70;;;18.50;99.90;;;;;;6313333;22;20034;-87
2022/09/09 15:46:25;;;;;;;1.27;0.60;;;18.50;99.90;;;;;;6287405;22;20309;-92
2022/09/09 15:48:52;;;;;;;1.92;0.60;;;18.50;99.90;;;;;;6287079;22;20324;-90
2022/09/09 15:51:18;;;;;;;1.13;0.50;;;18.50;99.90;;;;;;6287493;22;20021;-89
2022/09/09 15:53:44;;;;;;;;;;;18.50;99.90;;;;;;6287966;22;20021;-91
2022/09/09 15:56:10;;;;;;;1.13;0.30;;;18.50;99.90;;;;;;6287589;22;20251;-89
2022/09/09 15:58:36;;;;;;;0.63;0.38;;;18.50;99.90;;;;;;6287244;22;20045;-92
2022/09/09 16:01:07;;;;;;;;;;;18.50;99.90;;;;;;6287988;22;20072;-88
2022/09/09 16:03:37;;;;;;;0.52;0.30;;;18.40;99.90;;;;;;6286632;22;19911;-88
2022/09/09 16:06:04;;;;;;;2.00;0.30;;;18.40;99.90;;;;;;6286487;22;20463;-95
2022/09/09 16:08:39;;;;;;;0.93;0.38;;;18.50;99.90;;;;;;6312770;22;20014;-91
2022/09/09 16:11:07;;;;;;;1.48;0.40;;;18.40;99.90;;;;;;6230628;22;20457;-93
2022/09/09 16:13:34;;;;;;;0.28;0.22;;;18.50;99.90;;;;;;6161171;23;20099;-92
2022/09/09 16:16:00;;;;;;;1.27;0.40;;;18.40;99.90;;;;;;6161213;23;20450;-90
2022/09/09 16:18:26;;;;;;;2.35;0.80;;;18.40;99.90;;;;;;6161157;23;20017;-88
2022/09/09 16:20:55;;;;;;;1.33;0.50;;;18.40;99.90;;;;;;6161650;22;20012;-89
2022/09/09 16:23:21;;;;;;;1.70;0.50;;;18.40;99.90;;;;;;6160947;23;20016;-90
2022/09/09 16:25:55;;;;;;;0.73;0.47;;;18.40;99.90;;;;;;6161291;22;20056;-92
2022/09/09 16:28:22;;;;;;;0.85;0.50;;;18.40;99.90;;;;;;6161871;22;20453;-90
2022/09/09 16:30:48;;;;;;;;;;;18.40;99.90;;;;;;6186524;23;20073;-91
2022/09/09 16:33:16;;;;;;;1.83;0.52;;;18.30;99.90;;;;;;6161535;22;19916;-94
2022/09/09 16:35:42;;;;;;;1.70;0.57;;;18.30;99.90;;;;;;6161203;23;20017;-90
2022/09/09 16:38:24;;;;;;;1.70;0.50;;;18.20;99.90;;;;;;6184601;23;20024;-89
2022/09/09 16:41:10;;;;;;;0.55;0.40;;;18.20;99.90;;;;;;6160852;23;20017;-92
2022/09/09 16:43:51;;;;;;;0.65;0.45;;;18.20;99.90;;;;;;6161254;23;20020;-91
2022/09/09 16:46:19;;;;;;;1.75;0.65;;;18.10;99.90;;;;;;6138125;23;20016;-89
2022/09/09 16:48:47;;;;;;;0.93;0.50;;;18.10;99.90;;;;;;6158307;23;20017;-89
2022/09/09 16:51:19;;;;;;;1.15;0.40;;;18.10;99.90;;;;;;6159920;23;20013;-91
2022/09/09 16:53:50;;;;;;;4.50;0.68;;;18.10;99.90;;;;;;6161295;23;20020;-91
2022/09/09 16:56:19;;;;;;;0.77;0.50;;;18.00;99.90;;;;;;6159914;23;20446;-90
2022/09/09 16:58:52;;;;;;;2.33;0.50;;;18.00;99.90;;;;;;6161630;22;20070;-93
2022/09/09 17:01:40;;;;;;;3.17;0.68;;;17.90;99.90;;;;;;6160598;23;20096;-89
2022/09/09 17:04:38;;;;;;;1.70;0.50;;;17.90;99.90;;;;;;6157690;23;20017;-92
2022/09/09 17:07:04;;;;;;;1.42;0.60;;;17.90;99.90;;;;;;6159285;23;20396;-91
2022/09/09 17:09:31;;;;;;;2.60;0.60;;;17.80;99.90;;;;;;6159674;23;20017;-90
2022/09/09 17:11:58;;;;;;;1.73;0.80;;;17.80;99.90;;;;;;6134796;23;20021;-93
2022/09/09 17:14:31;;;;;;;1.45;0.60;;;17.80;99.90;;;;;;6160483;23;20020;-89
2022/09/09 17:18:10;;;;;;;1.98;0.80;;;17.80;99.90;;;;;;6161746;23;20107;-92
2022/09/09 17:20:24;;;;;;;2.40;0.80;;;17.70;99.90;;;;;;6182903;23;20400;-91
2022/09/09 17:28:05;;;;;;;0.85;0.60;;;17.70;99.90;;;;;;6185367;23;20031;-92
2022/09/09 17:30:49;;;;;;;1.30;0.60;;;17.60;99.90;;;;;;6161354;23;20025;-90
2022/09/09 17:33:30;;;;;;;;;;;;;;;;;;;;;
2022/09/09 17:36:09;;;;;;;1.63;0.88;;;17.60;99.90;;;;;;6159052;23;20027;-91
2022/09/09 17:38:38;;;;;;;1.45;0.60;;;17.60;99.90;;;;;;6157166;23;20384;-91
2022/09/09 17:41:17;;;;;;;1.92;0.70;;;17.60;99.90;;;;;;6158146;23;20055;-93
2022/09/09 17:43:43;;;;;;;1.70;0.70;;;17.50;99.90;;;;;;6157883;23;20017;-92
2022/09/09 17:46:27;;;;;;;2.67;0.88;;;17.50;99.90;;;;;;6158854;23;20023;-90
2022/09/09 17:49:01;;;;;;;1.20;0.60;;;17.50;99.90;;;;;;6159410;23;20021;-87
2022/09/09 17:51:40;;;;;;;0.98;0.50;;;17.50;99.90;;;;;;6162147;23;20017;-89
2022/09/09 17:54:09;;;;;;;2.53;0.63;;;17.50;99.90;;;;;;6159639;23;20326;-87
2022/09/09 17:56:37;;;;;;;1.52;0.60;;;17.40;99.90;;;;;;6160454;23;20021;-92
2022/09/09 17:59:18;;;;;;;1.80;0.70;;;17.40;99.90;;;;;;6160283;23;20446;-91
2022/09/09 18:01:55;;;;;;;1.30;0.70;;;17.40;99.90;;;;;;6160279;23;20024;-88
2022/09/09 18:04:36;;;;;;;1.52;0.70;;;17.30;99.90;;;;;;6166795;23;20099;-91
2022/09/09 18:07:03;;;;;;;1.52;0.77;;;17.30;99.90;;;;;;6160108;23;20017;-90
2022/09/09 18:09:28;;;;;;;1.98;0.80;;;17.30;99.90;;;;;;6184792;23;20046;-91
2022/09/09 18:12:15;;;;;;;3.33;1.02;;;17.30;99.90;;;;;;6135617;23;20021;-90
2022/09/09 18:14:43;;;;;;;2.17;1.02;;;17.30;99.90;;;;;;6160246;23;20017;-89
2022/09/09 18:18:03;;;;;;;;;;;;;;;;;;;;;
2022/09/09 18:25:49;;;;;;;1.30;0.70;;;17.10;99.90;;;;;;6210192;23;20094;-88
2022/09/09 18:56:37;;;;;;;2.70;0.95;;;17.00;99.90;;;;;;6208694;23;20028;-91
2022/09/09 18:59:16;;;;;;;1.95;0.70;;;16.90;99.90;;;;;;6158085;23;20515;-89
2022/09/09 19:01:43;;;;;;;3.03;1.02;;;17.00;99.90;;;;;;6157773;23;20092;-88
2022/09/09 19:04:10;;;;;;;2.83;0.93;;;17.00;99.90;;;;;;6159638;23;20044;-90
2022/09/09 19:07:13;;;;;;;2.70;1.05;;;17.00;99.90;;;;;;6159823;23;20452;-93
2022/09/09 19:09:41;;;;;;;2.72;0.90;;;17.00;99.90;;;;;;6138984;23;20024;-87
2022/09/09 19:12:07;;;;;;;1.98;0.90;;;17.00;99.90;;;;;;6109020;23;20017;-89
2022/09/09 19:14:33;;;;;;;1.70;0.88;;;17.00;99.90;;;;;;6132935;23;20442;-88
2022/09/09 19:16:59;;;;;;;2.45;1.10;;;17.10;99.90;;;;;;6132282;23;20074;-88
2022/09/09 19:19:28;;;;;;;1.63;0.80;;;17.10;99.90;;;;;;6133696;23;20054;-88
2022/09/09 19:21:56;;;;;;;3.60;1.00;;;17.00;99.90;;;;;;6158370;23;20100;-90
2022/09/09 19:24:39;;;;;;;3.30;1.00;;;17.00;99.90;;;;;;6159304;23;20438;-88
2022/09/09 19:27:08;;;;;;;2.45;0.90;;;17.00;99.90;;;;;;6160908;23;20021;-89
2022/09/09 19:29:42;;;;;;;2.75;1.13;;;17.00;99.90;;;;;;6136307;23;20016;-89
2022/09/09 19:32:10;;;;;;;2.45;1.00;;;17.00;99.90;;;;;;6138704;23;20021;-90
2022/09/09 19:34:37;;;;;;;1.77;0.90;;;16.90;99.90;;;;;;6163115;22;20021;-87
2022/09/09 19:37:03;;;;;;;3.05;1.02;;;16.90;99.90;;;;;;6160963;23;20017;-87
2022/09/09 19:39:38;;;;;;;1.70;0.88;;;16.90;99.90;;;;;;6136554;23;20016;-88
2022/09/09 19:42:04;;;;;;;2.10;1.08;;;16.90;99.90;;;;;;6136363;23;20031;-87
2022/09/09 19:44:45;;;;;;;2.38;1.08;;;16.90;99.90;;;;;;6160338;23;20091;-87
2022/09/09 19:47:20;;;;;;;1.65;0.88;;;16.90;99.90;;;;;;6161056;23;20065;-89
2022/09/09 19:49:51;;;;;;;2.17;0.93;;;16.90;99.90;;;;;;6135375;23;20021;-86
2022/09/09 19:52:17;;;;;;;2.38;0.80;;;16.90;99.90;;;;;;6136852;23;20319;-88
2022/09/09 19:54:49;;;;;;;;;;;16.90;99.90;;;;;;6161510;23;20017;-87
2022/09/09 19:57:22;;;;;;;2.67;1.10;;;16.90;99.90;;;;;;6160287;23;19919;-91
2022/09/09 19:59:59;;;;;;;2.25;1.00;;;16.90;99.90;;;;;;6165152;22;20021;-87
2022/09/09 20:02:41;;;;;;;2.53;0.95;;;16.90;99.90;;;;;;6161674;23;20024;-89
2022/09/09 21:09:34;;;;;;;4.00;1.60;;;16.70;99.90;;;;;;6200635;22;20053;-92
2022/09/09 21:48:17;;;;;;;5.47;2.00;;;16.50;99.90;;;;;;6189679;22;20052;-91
2022/09/09 21:50:46;;;;;;;5.25;1.95;;;16.60;99.90;;;;;;6136110;23;20023;-92
2022/09/09 22:18:20;;;;;;;4.72;2.53;;;16.40;99.90;;;;;;6214327;22;20021;-90
2022/09/09 22:20:46;;;;;;;4.32;2.15;;;16.30;99.90;;;;;;6138059;23;20331;-92
2022/09/09 22:56:55;;;;;;;6.22;2.70;;;16.00;99.90;;;;;;6210260;23;20457;-91
2022/09/09 22:59:22;;;;;;;5.20;2.65;;;16.00;99.90;;;;;;6136295;23;20016;-93
2022/09/09 23:06:59;;;;;;;4.32;2.42;;;16.00;99.90;;;;;;6124709;23;20035;-90
2022/09/09 23:09:25;;;;;;;5.45;3.20;;;16.00;99.90;;;;;;6161383;23;20031;-90
2022/09/09 23:11:50;;;;;;;5.63;2.97;;;16.00;99.90;;;;;;6161535;23;20507;-90
2022/09/09 23:14:16;;;;;;;6.47;3.10;;;15.90;99.90;;;;;;6161381;23;20445;-89
2022/09/09 23:16:45;;;;;;;6.68;3.63;;;15.90;99.90;;;;;;6186090;23;20471;-89
2022/09/09 23:19:14;;;;;;;7.38;3.67;;;15.90;99.90;;;;;;6161210;23;20023;-90
2022/09/09 23:21:59;;;;;;;5.70;3.05;;;15.90;99.90;;;;;;6162071;23;20017;-89